Time;durP1;ratioP1;P1;durP2;ratioP2;P2;SDS_P1;SDS_P2;PMS_P1;PMS_P2;Temp;Humidity;BMP_temperature;BMP_pressure;BME280_temperature;BME280_humidity;BME280_pressure;Samples;Min_cycle;Max_cycle;Signal;HPM_P1;HPM_P2
2021/12/14 00:02:07;;;;;;;;;;;;;;;-1.83;79.69;100936.03;4466481;32;34526;-63
2021/12/14 00:04:36;;;;;;;;;;;;;;;-1.60;77.93;100940.22;4466235;32;34227;-63
2021/12/14 00:07:05;;;;;;;;;;;;;;;-1.67;78.17;100937.72;4467746;32;34810;-64
2021/12/14 00:09:36;;;;;;;;;;;;;;;-1.64;77.85;100938.09;4468900;32;34702;-63
2021/12/14 00:17:07;;;;;;;;;;;;;;;-1.71;78.51;100935.59;4471922;32;33854;-63
2021/12/14 00:19:35;;;;;;;;;;;;;;;-1.65;78.33;100941.34;4469726;32;34209;-63
2021/12/14 00:22:07;;;;;;;;;;;;;;;-1.61;77.84;100943.50;4454388;32;35041;-64
2021/12/14 00:24:34;;;;;;;;;;;;;;;-1.79;78.00;100938.19;4468221;32;33725;-64
2021/12/14 00:27:05;;;;;;;;;;;;;;;-1.85;78.20;100942.56;4468510;32;34168;-63
2021/12/14 00:29:35;;;;;;;;;;;;;;;-1.95;78.72;100939.75;4456384;32;34169;-64
2021/12/14 00:32:04;;;;;;;;;;;;;;;-2.03;79.05;100943.03;4457656;32;33530;-63
2021/12/14 00:34:38;;;;;;;;;;;;;;;-2.06;78.86;100940.19;4459586;32;34237;-63
2021/12/14 00:37:09;;;;;;;;;;;;;;;-2.10;78.87;100943.09;4464015;32;34110;-63
2021/12/14 00:39:38;;;;;;;;;;;;;;;-1.98;78.71;100942.81;4470362;32;33982;-64
2021/12/14 00:42:05;;;;;;;;;;;;;;;-2.00;78.42;100944.28;4471626;32;34597;-64
2021/12/14 00:44:34;;;;;;;;;;;;;;;-1.87;77.97;100943.16;4470069;32;33685;-63
2021/12/14 00:47:02;;;;;;;;;;;;;;;-1.83;77.53;100951.28;4472420;32;34259;-63
2021/12/14 00:49:30;;;;;;;;;;;;;;;-1.80;77.77;100953.25;4455921;32;33671;-63
2021/12/14 00:51:57;;;;;;;;;;;;;;;-2.01;78.19;100959.34;4437436;32;34098;-64
2021/12/14 00:54:25;;;;;;;;;;;;;;;-1.99;78.51;100962.97;4466397;32;34135;-63
2021/12/14 00:56:53;;;;;;;;;;;;;;;-2.11;78.92;100959.06;4455216;32;34012;-64
2021/12/14 00:59:20;;;;;;;;;;;;;;;-2.09;79.00;100955.03;4469712;32;34913;-63
2021/12/14 01:01:53;;;;;;;;;;;;;;;-1.66;77.30;100964.94;4456768;32;32686;-63
2021/12/14 01:04:28;;;;;;;;;;;;;;;-1.61;76.92;100953.66;4469396;32;33616;-64
2021/12/14 01:06:56;;;;;;;;;;;;;;;-1.71;77.49;100955.91;4478829;32;34945;-63
2021/12/14 01:09:25;;;;;;;;;;;;;;;-1.66;77.40;100954.78;4469007;32;35099;-63
2021/12/14 01:11:53;;;;;;;;;;;;;;;-1.67;77.45;100965.69;4459705;32;34365;-64
2021/12/14 01:14:31;;;;;;;;;;;;;;;-1.43;76.42;100960.78;4472029;32;33599;-63
2021/12/14 01:17:12;;;;;;;;;;;;;;;-1.66;77.27;100964.94;4469731;32;34247;-64
2021/12/14 01:19:41;;;;;;;;;;;;;;;-1.55;77.02;100961.94;4469927;32;33934;-64
2021/12/14 01:23:01;;;;;;;;;;;;;;;-1.52;76.92;100964.84;4479216;32;34529;-64
2021/12/14 01:25:10;;;;;;;;;;;;;;;-1.81;78.13;100970.13;4450107;32;33332;-63
2021/12/14 01:27:41;;;;;;;;;;;;;;;-1.88;79.05;100976.88;4479117;32;34039;-64
2021/12/14 01:30:15;;;;;;;;;;;;;;;-2.19;79.50;100969.22;4470116;32;34632;-63
2021/12/14 01:32:45;;;;;;;;;;;;;;;-2.45;79.34;100973.88;4470807;32;33776;-64
2021/12/14 01:35:14;;;;;;;;;;;;;;;-2.27;78.33;100975.06;4474122;32;34409;-64
2021/12/14 01:37:46;;;;;;;;;;;;;;;-2.02;76.95;100965.16;4470604;32;34401;-64
2021/12/14 01:40:29;;;;;;;;;;;;;;;-2.01;77.76;100961.88;4469165;32;34849;-64
2021/12/14 01:42:57;;;;;;;;;;;;;;;-1.88;77.78;100961.63;4465910;32;34141;-64
2021/12/14 01:45:25;;;;;;;;;;;;;;;-1.81;77.64;100959.06;4468586;32;33615;-63
2021/12/14 01:47:54;;;;;;;;;;;;;;;-2.04;79.50;100972.63;4455827;32;33371;-64
2021/12/14 01:50:28;;;;;;;;;;;;;;;-2.24;80.10;100965.28;4472214;32;33585;-63
2021/12/14 01:52:56;;;;;;;;;;;;;;;-2.06;79.41;100966.47;4462327;32;34191;-62
2021/12/14 01:55:27;;;;;;;;;;;;;;;-2.30;80.10;100956.97;4466084;32;34162;-63
2021/12/14 01:57:55;;;;;;;;;;;;;;;-2.42;80.60;100960.62;4465271;32;33893;-63
2021/12/14 02:00:26;;;;;;;;;;;;;;;-2.12;78.78;100954.72;4466880;32;34130;-63
2021/12/14 02:02:53;;;;;;;;;;;;;;;-2.44;79.97;100960.47;4475262;27;34585;-85
2021/12/14 02:05:23;;;;;;;;;;;;;;;-2.58;80.53;100961.41;4452034;32;32988;-85
2021/12/14 02:07:50;;;;;;;;;;;;;;;-2.38;80.31;100967.88;4428571;27;33580;-64
2021/12/14 02:10:24;;;;;;;;;;;;;;;-2.25;79.52;100957.50;4424264;32;35041;-64
2021/12/14 02:12:51;;;;;;;;;;;;;;;-2.06;79.06;100957.94;4437476;32;34291;-64
2021/12/14 02:15:38;;;;;;;;;;;;;;;-2.20;79.80;100952.22;4423414;32;33558;-64
2021/12/14 02:18:11;;;;;;;;;;;;;;;-2.18;79.92;100958.38;4423506;32;34216;-64
2021/12/14 02:20:39;;;;;;;;;;;;;;;-2.05;79.61;100954.66;4436325;32;34646;-64
2021/12/14 02:23:07;;;;;;;;;;;;;;;-2.00;79.68;100956.97;4422912;32;32752;-64
2021/12/14 02:25:34;;;;;;;;;;;;;;;-1.82;78.93;100953.06;4439370;32;33515;-64
2021/12/14 02:28:04;;;;;;;;;;;;;;;-1.93;78.93;100953.53;4435598;32;34770;-64
2021/12/14 02:30:31;;;;;;;;;;;;;;;-2.40;80.21;100961.72;4435173;32;34181;-64
2021/12/14 02:32:59;;;;;;;;;;;;;;;-1.93;79.08;100958.59;4421937;32;34325;-64
2021/12/14 02:35:27;;;;;;;;;;;;;;;-2.29;79.52;100965.50;4422066;32;33605;-64
2021/12/14 02:37:59;;;;;;;;;;;;;;;-2.44;80.47;100965.53;4439160;32;34866;-64
2021/12/14 02:40:53;;;;;;;;;;;;;;;-2.44;81.32;100969.72;4439472;32;33939;-64
2021/12/14 02:43:33;;;;;;;;;;;;;;;-2.31;80.66;100970.38;4437589;32;34530;-64
2021/12/14 02:46:15;;;;;;;;;;;;;;;-2.15;80.74;100954.34;4429408;32;33543;-64
2021/12/14 02:48:46;;;;;;;;;;;;;;;-2.00;80.75;100956.97;4436997;32;34849;-64
2021/12/14 02:51:16;;;;;;;;;;;;;;;-1.74;80.03;100955.56;4436701;32;33983;-64
2021/12/14 02:53:44;;;;;;;;;;;;;;;-1.88;80.45;100962.53;4444637;32;35116;-64
2021/12/14 02:56:16;;;;;;;;;;;;;;;-2.08;81.89;100969.56;4435561;32;33629;-63
2021/12/14 02:58:45;;;;;;;;;;;;;;;-1.98;82.08;100965.69;4432403;32;34112;-64
2021/12/14 03:01:13;;;;;;;;;;;;;;;-2.05;82.08;100959.72;4434527;32;34027;-64
2021/12/14 03:03:41;;;;;;;;;;;;;;;-1.92;82.11;100957.84;4429024;32;33696;-64
2021/12/14 03:06:10;;;;;;;;;;;;;;;-1.95;82.34;100954.97;4442137;32;33238;-64
2021/12/14 03:08:44;;;;;;;;;;;;;;;-1.85;80.76;100957.81;4422457;32;32615;-64
2021/12/14 03:11:13;;;;;;;;;;;;;;;-2.24;81.36;100960.22;4423556;32;33179;-64
2021/12/14 03:13:46;;;;;;;;;;;;;;;-2.28;81.50;100958.06;4438444;32;35146;-64
2021/12/14 03:16:15;;;;;;;;;;;;;;;-2.02;80.06;100957.56;4432219;32;33699;-64
2021/12/14 03:18:45;;;;;;;;;;;;;;;-2.08;80.45;100951.78;4422587;32;33451;-64
2021/12/14 03:21:14;;;;;;;;;;;;;;;-1.86;79.95;100947.47;4436930;32;35017;-64
2021/12/14 03:23:43;;;;;;;;;;;;;;;-1.82;81.14;100947.97;4443777;32;34458;-64
2021/12/14 03:26:11;;;;;;;;;;;;;;;-1.27;79.33;100957.41;4437579;32;33744;-64
2021/12/14 03:28:38;;;;;;;;;;;;;;;-1.16;79.05;100961.97;4436871;32;33908;-64
2021/12/14 03:31:26;;;;;;;;;;;;;;;-1.49;79.91;100955.00;4435745;32;33963;-64
2021/12/14 03:33:56;;;;;;;;;;;;;;;-1.73;81.18;100952.31;4419532;32;34987;-64
2021/12/14 03:36:29;;;;;;;;;;;;;;;-1.66;80.87;100954.78;4430824;32;33786;-64
2021/12/14 03:38:56;;;;;;;;;;;;;;;-2.05;82.70;100952.13;4429429;32;32396;-64
2021/12/14 03:41:25;;;;;;;;;;;;;;;-1.70;81.23;100942.47;4437039;32;35115;-64
2021/12/14 03:44:00;;;;;;;;;;;;;;;-2.01;81.20;100949.19;4439989;32;34597;-64
2021/12/14 03:46:30;;;;;;;;;;;;;;;-1.99;81.21;100941.03;4408238;32;35492;-64
2021/12/14 03:48:57;;;;;;;;;;;;;;;-1.99;80.80;100947.72;4443003;32;34120;-64
2021/12/14 03:51:24;;;;;;;;;;;;;;;-2.26;81.68;100941.38;4441879;32;34285;-65
2021/12/14 03:53:53;;;;;;;;;;;;;;;-2.55;82.47;100945.63;4436497;32;34518;-64
2021/12/14 03:56:21;;;;;;;;;;;;;;;-2.49;82.77;100940.34;4425734;32;33412;-64
2021/12/14 03:58:49;;;;;;;;;;;;;;;-2.67;83.70;100939.16;4444336;32;33527;-64
2021/12/14 04:01:23;;;;;;;;;;;;;;;-2.52;84.22;100945.09;4434563;32;34166;-64
2021/12/14 04:03:53;;;;;;;;;;;;;;;-2.37;83.83;100949.41;4437207;32;34562;-64
2021/12/14 04:06:21;;;;;;;;;;;;;;;-2.29;83.62;100941.00;4428514;32;33973;-64
2021/12/14 04:08:48;;;;;;;;;;;;;;;-2.14;82.55;100943.47;4428951;32;33919;-64
2021/12/14 04:11:17;;;;;;;;;;;;;;;-2.31;83.05;100947.53;4442029;32;34149;-64
2021/12/14 04:13:46;;;;;;;;;;;;;;;-2.17;82.33;100950.00;4433415;32;34100;-64
2021/12/14 04:16:16;;;;;;;;;;;;;;;-2.24;81.81;100944.06;4440742;32;35284;-64
2021/12/14 04:18:44;;;;;;;;;;;;;;;-1.94;80.28;100941.53;4429776;32;33911;-64
2021/12/14 04:21:12;;;;;;;;;;;;;;;-2.22;80.92;100943.53;4435584;32;34088;-64
2021/12/14 04:23:41;;;;;;;;;;;;;;;-2.40;80.98;100946.50;4421758;32;34567;-64
2021/12/14 04:26:09;;;;;;;;;;;;;;;-2.61;81.93;100945.87;4425550;32;33685;-64
2021/12/14 04:28:42;;;;;;;;;;;;;;;-2.49;81.87;100950.50;4437020;32;34806;-64
2021/12/14 04:31:09;;;;;;;;;;;;;;;-2.44;81.60;100954.50;4438708;32;34287;-64
2021/12/14 04:33:37;;;;;;;;;;;;;;;-2.13;80.75;100945.28;4434726;32;34495;-64
2021/12/14 04:36:08;;;;;;;;;;;;;;;-1.92;79.64;100947.69;4444031;32;33096;-64
2021/12/14 04:38:44;;;;;;;;;;;;;;;-1.43;77.91;100954.78;4433039;32;34865;-64
2021/12/14 04:52:06;;;;;;;;;;;;;;;-2.54;80.36;100955.06;4442088;32;33842;-64
2021/12/14 04:54:38;;;;;;;;;;;;;;;-1.92;76.28;100949.34;4437226;32;34199;-65
2021/12/14 04:57:18;;;;;;;;;;;;;;;-1.23;74.71;100949.37;4425313;32;33203;-64
2021/12/14 04:59:46;;;;;;;;;;;;;;;-0.55;70.73;100936.31;4423959;32;34299;-64
2021/12/14 05:02:17;;;;;;;;;;;;;;;-1.89;74.26;100944.59;4431896;32;34952;-64
2021/12/14 05:04:47;;;;;;;;;;;;;;;-2.10;75.64;100948.19;4434326;32;34264;-64
2021/12/14 05:10:02;;;;;;;;;;;;;;;-1.49;74.19;100955.00;4437167;32;34790;-64
2021/12/14 05:12:33;;;;;;;;;;;;;;;-0.94;72.71;100959.25;4445660;32;34900;-64
2021/12/14 05:15:05;;;;;;;;;;;;;;;-0.37;70.72;100948.41;4413322;32;34211;-64
2021/12/14 05:17:34;;;;;;;;;;;;;;;-1.65;73.74;100951.50;4426369;32;33067;-64
2021/12/14 05:20:03;;;;;;;;;;;;;;;-2.15;76.87;100959.44;4432077;32;32473;-65
2021/12/14 05:22:33;;;;;;;;;;;;;;;-1.76;76.06;100957.03;4443558;32;34893;-64
2021/12/14 05:25:04;;;;;;;;;;;;;;;-1.61;75.13;100964.72;4441855;32;33722;-65
2021/12/14 05:27:37;;;;;;;;;;;;;;;-1.68;75.80;100972.41;4440561;32;32321;-65
2021/12/14 05:30:05;;;;;;;;;;;;;;;-1.98;76.74;100973.28;4435467;32;33630;-64
2021/12/14 05:32:34;;;;;;;;;;;;;;;-2.18;77.62;100965.97;4440122;32;32541;-65
2021/12/14 05:35:03;;;;;;;;;;;;;;;-1.73;76.36;100967.53;4424256;32;34608;-65
2021/12/14 05:37:34;;;;;;;;;;;;;;;-1.43;74.75;100962.41;4439371;32;33634;-64
2021/12/14 05:40:06;;;;;;;;;;;;;;;-2.22;78.21;100979.06;4432158;32;34946;-65
2021/12/14 05:45:20;;;;;;;;;;;;;;;-0.42;71.49;100969.97;4438331;32;34511;-65
2021/12/14 05:47:52;;;;;;;;;;;;;;;0.14;67.95;100966.50;4445294;32;34223;-65
2021/12/14 05:50:22;;;;;;;;;;;;;;;-0.09;67.70;100971.72;4433073;32;34382;-65
2021/12/14 05:52:50;;;;;;;;;;;;;;;0.04;67.10;100973.91;4421030;32;32456;-65
2021/12/14 05:55:21;;;;;;;;;;;;;;;-1.22;70.07;100981.66;4441839;32;34126;-65
2021/12/14 05:57:49;;;;;;;;;;;;;;;-1.74;73.64;100978.41;4448254;32;33886;-65
2021/12/14 06:00:17;;;;;;;;;;;;;;;-1.83;73.71;100985.94;4425753;32;33347;-65
2021/12/14 06:02:48;;;;;;;;;;;;;;;-1.69;73.81;100979.84;4440639;32;34225;-65
2021/12/14 06:05:17;;;;;;;;;;;;;;;-1.74;73.62;100986.03;4439488;32;34203;-65
2021/12/14 06:07:45;;;;;;;;;;;;;;;-1.95;74.51;100985.47;4421663;32;33203;-64
2021/12/14 06:10:13;;;;;;;;;;;;;;;-1.88;74.87;100985.38;4439387;32;34783;-65
2021/12/14 06:12:41;;;;;;;;;;;;;;;-1.43;73.64;100980.19;4429626;32;34859;-65
2021/12/14 06:15:10;;;;;;;;;;;;;;;-1.44;73.71;100984.38;4443666;32;34279;-67
2021/12/14 06:17:39;;;;;;;;;;;;;;;-1.55;73.60;100979.72;4433802;32;31888;-65
2021/12/14 06:20:13;;;;;;;;;;;;;;;-1.70;75.12;100985.66;4447230;32;34840;-66
2021/12/14 06:22:41;;;;;;;;;;;;;;;-1.11;72.59;100995.56;4433207;32;35214;-66
2021/12/14 06:25:11;;;;;;;;;;;;;;;-0.83;71.53;100994.38;4438384;32;34463;-66
2021/12/14 06:27:38;;;;;;;;;;;;;;;-0.29;69.35;101003.63;4436058;32;34199;-65
2021/12/14 06:30:25;;;;;;;;;;;;;;;0.01;68.29;100994.88;4434227;32;34491;-66
2021/12/14 06:33:05;;;;;;;;;;;;;;;0.31;66.40;100986.06;4436471;32;34251;-66
2021/12/14 06:35:37;;;;;;;;;;;;;;;0.26;65.00;100977.06;4435584;32;34551;-66
2021/12/14 06:38:28;;;;;;;;;;;;;;;-0.97;68.05;100984.34;4431945;32;33520;-66
2021/12/14 06:40:58;;;;;;;;;;;;;;;-1.47;71.08;100994.22;4449109;32;34739;-67
2021/12/14 06:43:26;;;;;;;;;;;;;;;-1.11;69.82;100996.47;4428667;32;34207;-67
2021/12/14 06:45:58;;;;;;;;;;;;;;;-1.17;69.31;100995.78;4435791;32;34404;-66
2021/12/14 06:48:31;;;;;;;;;;;;;;;-1.44;69.93;100998.72;4443788;32;33738;-65
2021/12/14 06:51:04;;;;;;;;;;;;;;;-1.30;69.30;100995.16;4435905;32;34986;-66
2021/12/14 06:53:32;;;;;;;;;;;;;;;-0.84;68.38;100997.66;4412551;32;34056;-66
2021/12/14 06:56:03;;;;;;;;;;;;;;;-0.01;65.07;100996.34;4425089;32;33881;-65
2021/12/14 06:58:37;;;;;;;;;;;;;;;0.51;62.14;100996.69;4431396;32;33389;-66
2021/12/14 07:01:07;;;;;;;;;;;;;;;0.54;61.63;100989.37;4412373;32;34527;-67
2021/12/14 07:03:49;;;;;;;;;;;;;;;0.36;61.77;101001.09;4433750;32;33525;-66
2021/12/14 07:06:29;;;;;;;;;;;;;;;0.17;62.60;101005.94;4445708;32;35025;-66
2021/12/14 07:09:02;;;;;;;;;;;;;;;0.72;60.26;101007.31;4440424;32;33427;-66
2021/12/14 07:11:29;;;;;;;;;;;;;;;0.58;60.57;101014.44;4429336;32;33875;-66
2021/12/14 07:13:57;;;;;;;;;;;;;;;0.16;62.04;101014.31;4444767;32;34953;-67
2021/12/14 07:16:37;;;;;;;;;;;;;;;-0.71;64.32;101011.00;4446552;32;35220;-67
2021/12/14 07:19:05;;;;;;;;;;;;;;;-1.44;67.83;101009.78;4424599;32;33627;-66
2021/12/14 07:21:36;;;;;;;;;;;;;;;-1.34;68.20;101020.97;4449969;32;34875;-67
2021/12/14 07:24:26;;;;;;;;;;;;;;;-1.20;68.23;101028.50;4438421;32;33810;-66
2021/12/14 07:27:13;;;;;;;;;;;;;;;-1.27;68.99;101020.94;4437408;32;34892;-66
2021/12/14 07:29:40;;;;;;;;;;;;;;;-1.67;70.85;101029.19;4439512;32;33015;-66
2021/12/14 07:32:07;;;;;;;;;;;;;;;-1.36;70.19;101030.09;4454127;32;34256;-66
2021/12/14 07:34:35;;;;;;;;;;;;;;;-1.13;70.32;101032.63;4443392;32;34072;-66
2021/12/14 07:37:02;;;;;;;;;;;;;;;-0.82;69.98;101029.25;4426637;32;35106;-67
2021/12/14 07:39:29;;;;;;;;;;;;;;;-0.67;70.32;101023.31;4444140;32;33613;-66
2021/12/14 07:41:58;;;;;;;;;;;;;;;-0.40;70.01;101030.47;4441776;32;33967;-66
2021/12/14 07:44:27;;;;;;;;;;;;;;;-0.40;70.13;101027.94;4445574;32;34045;-66
2021/12/14 07:47:15;;;;;;;;;;;;;;;-0.52;70.98;101023.13;4439606;32;34951;-66
2021/12/14 07:49:44;;;;;;;;;;;;;;;-0.25;71.02;101026.13;4429845;32;33570;-66
2021/12/14 07:52:16;;;;;;;;;;;;;;;-0.14;70.90;101008.53;4432900;32;34859;-66
2021/12/14 07:54:48;;;;;;;;;;;;;;;0.14;69.88;101013.25;4446018;32;34151;-66
2021/12/14 07:57:16;;;;;;;;;;;;;;;-0.07;70.68;101021.19;4431257;32;34219;-66
2021/12/14 07:59:49;;;;;;;;;;;;;;;0.73;68.05;101014.22;4419608;32;33263;-65
2021/12/14 08:02:16;;;;;;;;;;;;;;;1.01;65.79;101020.50;4433353;32;34315;-66
2021/12/14 08:04:49;;;;;;;;;;;;;;;1.20;65.00;101013.06;4444994;32;34802;-66
2021/12/14 08:07:24;;;;;;;;;;;;;;;1.21;65.10;101017.41;4426067;32;34994;-66
2021/12/14 08:09:53;;;;;;;;;;;;;;;1.62;63.43;101017.22;4434201;32;33735;-66
2021/12/14 08:12:46;;;;;;;;;;;;;;;1.53;63.71;101012.09;4435800;32;33906;-67
2021/12/14 08:15:17;;;;;;;;;;;;;;;1.68;62.93;101008.53;4432805;32;33936;-66
2021/12/14 08:17:44;;;;;;;;;;;;;;;1.76;62.90;101025.50;4439553;32;34466;-66
2021/12/14 08:20:13;;;;;;;;;;;;;;;1.74;62.94;101014.22;4445906;32;33418;-66
2021/12/14 08:22:53;;;;;;;;;;;;;;;1.76;62.58;101012.72;4441027;32;34719;-66
2021/12/14 08:25:25;;;;;;;;;;;;;;;1.62;63.32;101018.09;4450072;32;34005;-66
2021/12/14 08:28:00;;;;;;;;;;;;;;;1.09;65.02;101017.06;4440387;32;34484;-66
2021/12/14 08:30:28;;;;;;;;;;;;;;;1.34;64.78;101015.34;4441002;32;34355;-66
2021/12/14 08:32:55;;;;;;;;;;;;;;;1.64;63.82;101011.53;4449416;32;34939;-65
2021/12/14 08:35:22;;;;;;;;;;;;;;;1.88;63.40;101012.12;4440498;32;35015;-66
2021/12/14 08:37:53;;;;;;;;;;;;;;;1.95;63.52;101014.53;4434449;32;35200;-66
2021/12/14 08:40:21;;;;;;;;;;;;;;;2.02;63.26;101016.94;4447326;32;34306;-66
2021/12/14 08:43:04;;;;;;;;;;;;;;;2.23;63.11;101017.25;4451876;32;34114;-66
2021/12/14 08:45:34;;;;;;;;;;;;;;;1.90;64.21;101011.53;4431698;32;33713;-66
2021/12/14 08:48:12;;;;;;;;;;;;;;;2.04;64.44;101020.53;4433016;32;32665;-66
2021/12/14 08:51:00;;;;;;;;;;;;;;;2.17;64.42;101013.31;4429866;32;34289;-65
2021/12/14 08:53:29;;;;;;;;;;;;;;;2.15;64.37;101019.94;4420417;32;33890;-66
2021/12/14 08:55:57;;;;;;;;;;;;;;;2.19;64.44;101016.03;4446362;32;34911;-66
2021/12/14 08:58:25;;;;;;;;;;;;;;;2.09;65.28;101019.34;4447027;32;35044;-66
2021/12/14 09:00:54;;;;;;;;;;;;;;;2.24;65.12;101019.03;4452371;32;34314;-66
2021/12/14 09:03:31;;;;;;;;;;;;;;;2.24;65.05;101013.91;4440484;32;33845;-66
2021/12/14 09:06:00;;;;;;;;;;;;;;;1.71;67.19;101013.91;4446767;32;34292;-66
2021/12/14 09:08:28;;;;;;;;;;;;;;;1.34;69.49;101025.56;4446282;32;34211;-66
2021/12/14 09:10:56;;;;;;;;;;;;;;;1.13;70.66;101018.28;4451600;32;33471;-66
2021/12/14 09:13:24;;;;;;;;;;;;;;;1.97;68.25;101007.94;4443231;32;34208;-66
2021/12/14 09:15:58;;;;;;;;;;;;;;;1.77;68.97;101013.63;4436027;32;34162;-66
2021/12/14 09:18:26;;;;;;;;;;;;;;;1.73;68.92;101002.19;4449332;32;34204;-66
2021/12/14 09:20:58;;;;;;;;;;;;;;;3.07;64.76;101015.06;4444056;32;34016;-66
2021/12/14 09:23:28;;;;;;;;;;;;;;;2.76;65.56;101008.69;4452832;32;33246;-66
2021/12/14 09:25:56;;;;;;;;;;;;;;;2.85;65.67;101003.56;4446209;32;34198;-66
2021/12/14 09:28:24;;;;;;;;;;;;;;;3.04;65.21;101014.75;4446695;32;34130;-66
2021/12/14 09:30:55;;;;;;;;;;;;;;;3.41;64.13;101015.63;4451642;32;34344;-66
2021/12/14 09:33:25;;;;;;;;;;;;;;;3.11;64.99;101003.44;4452740;32;34102;-66
2021/12/14 09:35:55;;;;;;;;;;;;;;;3.51;64.18;100997.78;4445703;32;34181;-66
2021/12/14 09:38:31;;;;;;;;;;;;;;;3.37;64.55;101005.88;4446630;32;34942;-66
2021/12/14 09:41:00;;;;;;;;;;;;;;;3.57;64.15;100999.09;4452797;32;33714;-66
2021/12/14 09:43:32;;;;;;;;;;;;;;;3.80;63.65;101006.34;4431395;32;34926;-66
2021/12/14 09:46:00;;;;;;;;;;;;;;;3.55;65.26;100991.28;4449302;32;35092;-66
2021/12/14 09:48:29;;;;;;;;;;;;;;;3.83;64.30;100989.56;4449743;32;34495;-66
2021/12/14 09:50:57;;;;;;;;;;;;;;;4.04;63.93;100988.03;4428824;32;33578;-65
2021/12/14 09:53:26;;;;;;;;;;;;;;;4.16;63.80;100987.34;4452583;32;34251;-66
2021/12/14 09:55:54;;;;;;;;;;;;;;;4.10;63.88;100977.44;4445688;32;34236;-66
2021/12/14 09:58:25;;;;;;;;;;;;;;;4.30;63.22;100980.09;4446640;32;34839;-65
2021/12/14 10:00:56;;;;;;;;;;;;;;;4.27;63.17;100977.28;4451911;32;34287;-66
2021/12/14 10:03:24;;;;;;;;;;;;;;;4.53;62.48;100976.97;4442357;32;33934;-66
2021/12/14 10:05:59;;;;;;;;;;;;;;;4.74;62.05;100974.50;4449708;32;33931;-65
2021/12/14 10:08:31;;;;;;;;;;;;;;;4.62;62.33;100970.88;4449157;32;35038;-66
2021/12/14 10:11:11;;;;;;;;;;;;;;;4.57;62.74;100972.13;4443008;32;33512;-65
2021/12/14 10:13:40;;;;;;;;;;;;;;;4.78;61.84;100962.84;4432768;32;34411;-66
2021/12/14 10:16:09;;;;;;;;;;;;;;;5.01;61.41;100972.50;4434311;32;34706;-66
2021/12/14 10:18:44;;;;;;;;;;;;;;;4.94;61.69;100965.94;4441042;32;34148;-66
2021/12/14 10:21:15;;;;;;;;;;;;;;;5.11;61.33;100949.41;4439948;32;34450;-66
2021/12/14 10:23:42;;;;;;;;;;;;;;;5.70;59.40;100948.38;4450437;32;34677;-66
2021/12/14 10:26:13;;;;;;;;;;;;;;;5.66;59.71;100951.47;4446692;32;34233;-66
2021/12/14 10:28:41;;;;;;;;;;;;;;;5.59;60.17;100946.56;4444405;32;34949;-66
2021/12/14 10:31:12;;;;;;;;;;;;;;;5.61;59.98;100939.88;4438216;32;33624;-65
2021/12/14 10:33:40;;;;;;;;;;;;;;;5.71;59.59;100949.25;4450914;32;34945;-67
2021/12/14 10:36:17;;;;;;;;;;;;;;;5.74;59.43;100951.16;4433281;32;34059;-65
2021/12/14 10:44:16;;;;;;;;;;;;;;;5.80;59.20;100954.28;4447090;32;34664;-65
2021/12/14 10:46:47;;;;;;;;;;;;;;;5.87;59.11;100944.63;4450829;32;34188;-66
2021/12/14 10:49:17;;;;;;;;;;;;;;;5.82;59.43;100945.00;4442345;32;34640;-65
2021/12/14 10:51:46;;;;;;;;;;;;;;;5.92;59.10;100952.69;4449581;32;34207;-66
2021/12/14 10:54:14;;;;;;;;;;;;;;;6.64;57.03;100948.19;4433343;32;33495;-65
2021/12/14 10:56:44;;;;;;;;;;;;;;;6.28;57.90;100941.06;4444502;32;34839;-65
2021/12/14 10:59:13;;;;;;;;;;;;;;;6.79;56.29;100939.91;4440866;32;34511;-65
2021/12/14 11:01:42;;;;;;;;;;;;;;;6.69;56.40;100939.16;4450681;32;33354;-65
2021/12/14 11:04:11;;;;;;;;;;;;;;;5.92;58.93;100950.13;4447144;32;34149;-66
2021/12/14 11:06:42;;;;;;;;;;;;;;;5.98;58.59;100952.34;4439445;32;168387;-65
2021/12/14 11:11:41;;;;;;;;;;;;;;;4.79;62.90;100945.00;4443693;32;33533;-65
2021/12/14 11:14:09;;;;;;;;;;;;;;;5.45;61.18;100939.41;4434042;32;34227;-65
2021/12/14 11:19:34;;;;;;;;;;;;;;;5.56;60.50;100933.47;4452825;32;34782;-65
2021/12/14 11:22:09;;;;;;;;;;;;;;;6.01;59.50;100934.59;4446352;32;33547;-65
2021/12/14 11:24:37;;;;;;;;;;;;;;;6.17;58.98;100929.88;4445006;32;35115;-65
2021/12/14 11:27:24;;;;;;;;;;;;;;;5.90;59.62;100923.38;4452148;32;33557;-65
2021/12/14 11:29:55;;;;;;;;;;;;;;;6.28;58.88;100938.47;4425465;32;34904;-65
2021/12/14 11:32:23;;;;;;;;;;;;;;;6.10;59.23;100933.66;4439063;32;33967;-65
2021/12/14 11:34:50;;;;;;;;;;;;;;;5.69;60.40;100933.69;4451193;32;34681;-65
2021/12/14 11:37:21;;;;;;;;;;;;;;;5.99;59.93;100929.31;4441822;32;34198;-65
2021/12/14 11:39:50;;;;;;;;;;;;;;;5.94;59.73;100929.69;4450136;32;33211;-65
2021/12/14 11:42:20;;;;;;;;;;;;;;;5.68;60.06;100931.91;4448057;32;34238;-65
2021/12/14 11:44:50;;;;;;;;;;;;;;;5.88;59.34;100930.06;4443213;32;34618;-65
2021/12/14 11:49:58;;;;;;;;;;;;;;;5.71;60.39;100921.87;4445273;32;34450;-65
2021/12/14 11:52:50;;;;;;;;;;;;;;;5.72;59.57;100926.25;4440743;32;33311;-65
2021/12/14 11:55:20;;;;;;;;;;;;;;;6.08;58.95;100924.00;4432155;32;34257;-65
2021/12/14 11:57:48;;;;;;;;;;;;;;;6.31;58.14;100918.13;4417208;32;33221;-65
2021/12/14 12:00:20;;;;;;;;;;;;;;;6.63;57.28;100918.09;4446923;32;34231;-66
2021/12/14 12:02:47;;;;;;;;;;;;;;;6.88;56.57;100910.59;4444116;32;33522;-65
2021/12/14 12:05:23;;;;;;;;;;;;;;;6.22;58.67;100923.44;4437719;32;35074;-65
2021/12/14 12:10:40;;;;;;;;;;;;;;;5.90;59.41;100920.81;4435712;32;35369;-65
2021/12/14 12:13:08;;;;;;;;;;;;;;;6.35;59.17;100912.44;4433430;32;32396;-65
2021/12/14 12:15:40;;;;;;;;;;;;;;;5.97;60.21;100919.66;4426726;32;34908;-65
2021/12/14 12:18:08;;;;;;;;;;;;;;;5.95;60.22;100921.16;4440750;32;34943;-65
2021/12/14 12:20:40;;;;;;;;;;;;;;;7.13;57.22;100902.19;4423951;32;35216;-65
2021/12/14 12:23:09;;;;;;;;;;;;;;;7.63;55.89;100907.66;4436833;32;34352;-65
2021/12/14 12:25:42;;;;;;;;;;;;;;;7.13;56.29;100911.56;4447664;32;34246;-66
2021/12/14 12:28:13;;;;;;;;;;;;;;;7.08;56.42;100909.53;4446261;32;33991;-65
2021/12/14 12:30:45;;;;;;;;;;;;;;;7.38;56.41;100901.44;4423888;32;34970;-66
2021/12/14 12:33:16;;;;;;;;;;;;;;;8.05;54.44;100909.00;4440811;32;33594;-66
2021/12/14 12:35:49;;;;;;;;;;;;;;;8.05;54.40;100900.34;4438026;32;33142;-65
2021/12/14 12:38:37;;;;;;;;;;;;;;;8.06;54.50;100908.22;4438854;32;33744;-66
2021/12/14 12:41:18;;;;;;;;;;;;;;;8.02;52.92;100907.87;4438062;32;34122;-65
2021/12/14 12:44:00;;;;;;;;;;;;;;;8.55;52.35;100903.09;4423572;32;32689;-66
2021/12/14 12:46:29;;;;;;;;;;;;;;;8.61;52.69;100902.63;4424252;32;34259;-66
2021/12/14 12:49:03;;;;;;;;;;;;;;;8.93;50.32;100898.81;4440763;32;33726;-66
2021/12/14 12:51:51;;;;;;;;;;;;;;;8.69;51.02;100905.75;4436731;32;34466;-65
2021/12/14 12:54:26;;;;;;;;;;;;;;;9.07;50.09;100900.66;4438733;32;34331;-66
2021/12/14 12:57:07;;;;;;;;;;;;;;;9.23;49.67;100897.41;4424743;32;34964;-65
2021/12/14 12:59:41;;;;;;;;;;;;;;;9.35;49.12;100897.34;4415118;32;33486;-65
2021/12/14 13:02:14;;;;;;;;;;;;;;;9.13;49.91;100888.16;4431770;32;34615;-65
2021/12/14 13:04:43;;;;;;;;;;;;;;;9.10;49.82;100892.19;4439583;32;33567;-65
2021/12/14 13:07:10;;;;;;;;;;;;;;;9.00;49.84;100889.03;4416395;32;33309;-65
2021/12/14 13:09:56;;;;;;;;;;;;;;;8.71;50.45;100884.44;4435272;32;35163;-65
2021/12/14 13:12:36;;;;;;;;;;;;;;;8.73;50.09;100893.19;4440053;32;34527;-66
2021/12/14 13:15:04;;;;;;;;;;;;;;;9.34;48.94;100895.56;4425152;32;32586;-66
2021/12/14 13:17:31;;;;;;;;;;;;;;;9.29;48.46;100900.44;4438299;32;34179;-65
2021/12/14 13:20:01;;;;;;;;;;;;;;;8.40;51.01;100905.47;4439135;32;34324;-66
2021/12/14 13:22:29;;;;;;;;;;;;;;;7.82;52.97;100909.00;4440620;32;33848;-66
2021/12/14 13:24:56;;;;;;;;;;;;;;;5.87;58.65;100910.25;4438779;32;33578;-66
2021/12/14 13:27:24;;;;;;;;;;;;;;;7.08;55.54;100903.50;4439001;32;33390;-65
2021/12/14 13:29:53;;;;;;;;;;;;;;;6.74;56.05;100916.38;4448409;32;35235;-66
2021/12/14 13:32:23;;;;;;;;;;;;;;;6.59;56.67;100910.91;4439004;32;34269;-65
2021/12/14 13:34:51;;;;;;;;;;;;;;;7.02;55.16;100903.03;4430445;32;32771;-65
2021/12/14 13:37:22;;;;;;;;;;;;;;;6.41;56.85;100910.38;4436293;32;33883;-66
2021/12/14 13:39:51;;;;;;;;;;;;;;;6.44;56.67;100920.00;4432489;32;32575;-65